sensor_id;sensor_type;location;lat;lon;timestamp;P1;durP1;ratioP1;P2;durP2;ratioP2
8895;SDS011;4484;48.928;10.066;2024-03-23T00:53:43;5.10;;;4.10;;
8895;SDS011;4484;48.928;10.066;2024-03-23T00:56:09;5.67;;;4.17;;
8895;SDS011;4484;48.928;10.066;2024-03-23T00:58:35;8.33;;;5.20;;
8895;SDS011;4484;48.928;10.066;2024-03-23T01:01:01;8.63;;;5.20;;
8895;SDS011;4484;48.928;10.066;2024-03-23T01:03:29;8.03;;;4.67;;
8895;SDS011;4484;48.928;10.066;2024-03-23T01:05:59;6.30;;;4.80;;
8895;SDS011;4484;48.928;10.066;2024-03-23T01:08:28;4.60;;;3.97;;
8895;SDS011;4484;48.928;10.066;2024-03-23T01:10:55;5.57;;;4.17;;
8895;SDS011;4484;48.928;10.066;2024-03-23T01:13:22;6.40;;;3.70;;
8895;SDS011;4484;48.928;10.066;2024-03-23T01:15:49;3.87;;;3.27;;
8895;SDS011;4484;48.928;10.066;2024-03-23T01:18:17;5.83;;;3.30;;
8895;SDS011;4484;48.928;10.066;2024-03-23T01:20:47;4.40;;;3.47;;
8895;SDS011;4484;48.928;10.066;2024-03-23T01:23:12;4.80;;;3.43;;
8895;SDS011;4484;48.928;10.066;2024-03-23T01:25:39;5.60;;;3.40;;
8895;SDS011;4484;48.928;10.066;2024-03-23T01:28:05;3.67;;;3.33;;
8895;SDS011;4484;48.928;10.066;2024-03-23T01:30:32;5.73;;;3.77;;
8895;SDS011;4484;48.928;10.066;2024-03-23T01:32:58;5.27;;;4.17;;
8895;SDS011;4484;48.928;10.066;2024-03-23T01:35:24;5.40;;;3.93;;
8895;SDS011;4484;48.928;10.066;2024-03-23T01:37:50;5.63;;;4.23;;
8895;SDS011;4484;48.928;10.066;2024-03-23T01:40:16;4.43;;;3.67;;
8895;SDS011;4484;48.928;10.066;2024-03-23T01:42:42;5.67;;;3.73;;
8895;SDS011;4484;48.928;10.066;2024-03-23T01:45:20;3.50;;;3.00;;
8895;SDS011;4484;48.928;10.066;2024-03-23T01:47:46;4.30;;;3.23;;
8895;SDS011;4484;48.928;10.066;2024-03-23T01:50:12;3.67;;;3.10;;
8895;SDS011;4484;48.928;10.066;2024-03-23T01:52:38;7.13;;;3.77;;
8895;SDS011;4484;48.928;10.066;2024-03-23T01:55:04;6.97;;;4.47;;
8895;SDS011;4484;48.928;10.066;2024-03-23T01:57:31;5.87;;;4.13;;
8895;SDS011;4484;48.928;10.066;2024-03-23T01:59:56;4.53;;;3.53;;
8895;SDS011;4484;48.928;10.066;2024-03-23T02:02:26;4.00;;;3.20;;
8895;SDS011;4484;48.928;10.066;2024-03-23T02:04:52;3.57;;;2.97;;
8895;SDS011;4484;48.928;10.066;2024-03-23T02:07:18;3.33;;;2.97;;
8895;SDS011;4484;48.928;10.066;2024-03-23T02:09:44;4.00;;;3.13;;
8895;SDS011;4484;48.928;10.066;2024-03-23T02:12:11;5.70;;;3.23;;
8895;SDS011;4484;48.928;10.066;2024-03-23T02:14:36;4.00;;;3.17;;
8895;SDS011;4484;48.928;10.066;2024-03-23T02:17:02;6.70;;;3.73;;
8895;SDS011;4484;48.928;10.066;2024-03-23T02:19:29;6.33;;;3.47;;
8895;SDS011;4484;48.928;10.066;2024-03-23T02:21:55;3.93;;;3.20;;
8895;SDS011;4484;48.928;10.066;2024-03-23T02:24:21;5.60;;;3.30;;
8895;SDS011;4484;48.928;10.066;2024-03-23T02:26:46;4.40;;;3.33;;
8895;SDS011;4484;48.928;10.066;2024-03-23T02:29:14;4.60;;;3.50;;
8895;SDS011;4484;48.928;10.066;2024-03-23T02:31:40;4.33;;;3.03;;
8895;SDS011;4484;48.928;10.066;2024-03-23T02:34:06;5.73;;;3.47;;
8895;SDS011;4484;48.928;10.066;2024-03-23T02:36:32;7.03;;;3.93;;
8895;SDS011;4484;48.928;10.066;2024-03-23T02:38:58;7.17;;;3.30;;
8895;SDS011;4484;48.928;10.066;2024-03-23T02:41:23;6.57;;;3.80;;
8895;SDS011;4484;48.928;10.066;2024-03-23T02:43:50;4.53;;;3.33;;
8895;SDS011;4484;48.928;10.066;2024-03-23T02:46:15;4.63;;;3.70;;
8895;SDS011;4484;48.928;10.066;2024-03-23T02:48:41;5.60;;;3.40;;
8895;SDS011;4484;48.928;10.066;2024-03-23T02:51:07;6.33;;;3.20;;
8895;SDS011;4484;48.928;10.066;2024-03-23T02:53:33;7.90;;;3.07;;
8895;SDS011;4484;48.928;10.066;2024-03-23T02:55:59;3.63;;;2.90;;
8895;SDS011;4484;48.928;10.066;2024-03-23T02:58:25;5.33;;;2.90;;
8895;SDS011;4484;48.928;10.066;2024-03-23T03:00:51;3.80;;;2.97;;
8895;SDS011;4484;48.928;10.066;2024-03-23T03:03:17;8.03;;;4.90;;
8895;SDS011;4484;48.928;10.066;2024-03-23T03:05:43;9.17;;;5.33;;
8895;SDS011;4484;48.928;10.066;2024-03-23T03:08:08;7.10;;;4.80;;
8895;SDS011;4484;48.928;10.066;2024-03-23T03:10:34;5.53;;;3.87;;
8895;SDS011;4484;48.928;10.066;2024-03-23T03:13:01;6.17;;;4.30;;
8895;SDS011;4484;48.928;10.066;2024-03-23T03:15:28;5.27;;;3.07;;
8895;SDS011;4484;48.928;10.066;2024-03-23T03:17:54;4.23;;;3.07;;
8895;SDS011;4484;48.928;10.066;2024-03-23T03:20:19;4.13;;;3.00;;
8895;SDS011;4484;48.928;10.066;2024-03-23T03:22:47;5.37;;;3.00;;
8895;SDS011;4484;48.928;10.066;2024-03-23T03:25:13;3.87;;;2.90;;
8895;SDS011;4484;48.928;10.066;2024-03-23T03:27:39;2.87;;;2.53;;
8895;SDS011;4484;48.928;10.066;2024-03-23T03:30:05;4.93;;;2.87;;
8895;SDS011;4484;48.928;10.066;2024-03-23T03:32:33;4.07;;;2.80;;
8895;SDS011;4484;48.928;10.066;2024-03-23T03:34:59;7.63;;;2.97;;
8895;SDS011;4484;48.928;10.066;2024-03-23T03:37:25;3.93;;;3.03;;
8895;SDS011;4484;48.928;10.066;2024-03-23T03:39:50;3.97;;;2.90;;
8895;SDS011;4484;48.928;10.066;2024-03-23T03:42:16;6.03;;;3.23;;
8895;SDS011;4484;48.928;10.066;2024-03-23T03:44:42;4.13;;;3.00;;
8895;SDS011;4484;48.928;10.066;2024-03-23T03:47:08;6.93;;;3.40;;
8895;SDS011;4484;48.928;10.066;2024-03-23T03:49:34;4.93;;;3.10;;
8895;SDS011;4484;48.928;10.066;2024-03-23T03:52:00;7.30;;;3.17;;
8895;SDS011;4484;48.928;10.066;2024-03-23T03:54:27;5.47;;;3.50;;
8895;SDS011;4484;48.928;10.066;2024-03-23T03:56:53;5.53;;;3.43;;
8895;SDS011;4484;48.928;10.066;2024-03-23T03:59:19;4.50;;;3.00;;
8895;SDS011;4484;48.928;10.066;2024-03-23T04:01:45;5.50;;;3.30;;
8895;SDS011;4484;48.928;10.066;2024-03-23T04:04:11;5.77;;;3.20;;
8895;SDS011;4484;48.928;10.066;2024-03-23T04:06:37;3.87;;;3.00;;
8895;SDS011;4484;48.928;10.066;2024-03-23T04:09:04;3.40;;;2.73;;
8895;SDS011;4484;48.928;10.066;2024-03-23T04:11:31;5.50;;;3.40;;
8895;SDS011;4484;48.928;10.066;2024-03-23T04:13:57;5.60;;;3.53;;
8895;SDS011;4484;48.928;10.066;2024-03-23T04:16:34;3.83;;;3.10;;
8895;SDS011;4484;48.928;10.066;2024-03-23T04:19:01;5.07;;;3.33;;
8895;SDS011;4484;48.928;10.066;2024-03-23T04:21:27;5.30;;;3.50;;
8895;SDS011;4484;48.928;10.066;2024-03-23T04:23:53;3.73;;;3.10;;
8895;SDS011;4484;48.928;10.066;2024-03-23T04:26:18;4.90;;;3.17;;
8895;SDS011;4484;48.928;10.066;2024-03-23T04:28:44;5.00;;;3.03;;
8895;SDS011;4484;48.928;10.066;2024-03-23T04:31:11;5.30;;;3.37;;
8895;SDS011;4484;48.928;10.066;2024-03-23T04:33:36;5.37;;;3.17;;
8895;SDS011;4484;48.928;10.066;2024-03-23T04:36:02;3.77;;;3.00;;
8895;SDS011;4484;48.928;10.066;2024-03-23T04:38:28;4.30;;;2.90;;
8895;SDS011;4484;48.928;10.066;2024-03-23T04:40:57;4.53;;;2.90;;
8895;SDS011;4484;48.928;10.066;2024-03-23T04:43:27;5.17;;;2.87;;
8895;SDS011;4484;48.928;10.066;2024-03-23T04:45:53;4.43;;;2.90;;
8895;SDS011;4484;48.928;10.066;2024-03-23T04:48:22;5.07;;;2.83;;
8895;SDS011;4484;48.928;10.066;2024-03-23T04:50:49;4.57;;;2.70;;
8895;SDS011;4484;48.928;10.066;2024-03-23T04:53:19;4.70;;;2.40;;
8895;SDS011;4484;48.928;10.066;2024-03-23T04:55:45;5.97;;;2.53;;
8895;SDS011;4484;48.928;10.066;2024-03-23T04:58:11;4.20;;;2.93;;
8895;SDS011;4484;48.928;10.066;2024-03-23T05:00:37;3.77;;;2.57;;
8895;SDS011;4484;48.928;10.066;2024-03-23T05:03:03;5.30;;;2.70;;
8895;SDS011;4484;48.928;10.066;2024-03-23T05:05:29;3.53;;;2.57;;
8895;SDS011;4484;48.928;10.066;2024-03-23T05:07:55;3.67;;;2.80;;
8895;SDS011;4484;48.928;10.066;2024-03-23T05:10:21;3.87;;;2.83;;
8895;SDS011;4484;48.928;10.066;2024-03-23T05:12:47;2.80;;;2.40;;
8895;SDS011;4484;48.928;10.066;2024-03-23T05:15:13;3.73;;;2.90;;
8895;SDS011;4484;48.928;10.066;2024-03-23T05:17:39;4.53;;;3.00;;
8895;SDS011;4484;48.928;10.066;2024-03-23T05:20:05;3.40;;;2.23;;
8895;SDS011;4484;48.928;10.066;2024-03-23T05:22:39;4.60;;;3.23;;
8895;SDS011;4484;48.928;10.066;2024-03-23T05:25:05;3.53;;;2.67;;
8895;SDS011;4484;48.928;10.066;2024-03-23T05:27:33;3.53;;;2.60;;
8895;SDS011;4484;48.928;10.066;2024-03-23T05:29:59;4.40;;;2.37;;
8895;SDS011;4484;48.928;10.066;2024-03-23T05:32:25;2.87;;;2.30;;
8895;SDS011;4484;48.928;10.066;2024-03-23T05:34:51;3.00;;;2.20;;
8895;SDS011;4484;48.928;10.066;2024-03-23T05:37:21;2.97;;;2.30;;
8895;SDS011;4484;48.928;10.066;2024-03-23T05:39:47;5.47;;;2.97;;
8895;SDS011;4484;48.928;10.066;2024-03-23T05:42:18;6.77;;;4.53;;
8895;SDS011;4484;48.928;10.066;2024-03-23T05:44:44;8.70;;;6.00;;
8895;SDS011;4484;48.928;10.066;2024-03-23T05:47:10;10.10;;;6.03;;
8895;SDS011;4484;48.928;10.066;2024-03-23T05:49:43;8.30;;;6.60;;
8895;SDS011;4484;48.928;10.066;2024-03-23T05:52:09;13.00;;;7.27;;
8895;SDS011;4484;48.928;10.066;2024-03-23T05:54:35;12.83;;;7.70;;
8895;SDS011;4484;48.928;10.066;2024-03-23T05:57:01;11.73;;;8.43;;
8895;SDS011;4484;48.928;10.066;2024-03-23T05:59:28;12.63;;;8.87;;
8895;SDS011;4484;48.928;10.066;2024-03-23T06:01:54;10.57;;;7.70;;
8895;SDS011;4484;48.928;10.066;2024-03-23T06:04:20;12.80;;;9.27;;
8895;SDS011;4484;48.928;10.066;2024-03-23T06:06:49;12.17;;;8.83;;
8895;SDS011;4484;48.928;10.066;2024-03-23T06:09:17;13.97;;;9.97;;
8895;SDS011;4484;48.928;10.066;2024-03-23T06:11:45;16.17;;;10.37;;
8895;SDS011;4484;48.928;10.066;2024-03-23T06:14:11;12.43;;;9.53;;
8895;SDS011;4484;48.928;10.066;2024-03-23T06:16:36;15.70;;;9.73;;
8895;SDS011;4484;48.928;10.066;2024-03-23T06:19:02;13.03;;;9.30;;
8895;SDS011;4484;48.928;10.066;2024-03-23T06:21:29;13.73;;;9.57;;
8895;SDS011;4484;48.928;10.066;2024-03-23T06:23:55;13.97;;;9.90;;
8895;SDS011;4484;48.928;10.066;2024-03-23T06:26:21;14.17;;;9.67;;
8895;SDS011;4484;48.928;10.066;2024-03-23T06:28:47;13.13;;;8.93;;
8895;SDS011;4484;48.928;10.066;2024-03-23T06:31:13;16.60;;;8.57;;
8895;SDS011;4484;48.928;10.066;2024-03-23T06:33:39;11.33;;;7.07;;
8895;SDS011;4484;48.928;10.066;2024-03-23T06:36:08;12.43;;;6.17;;
8895;SDS011;4484;48.928;10.066;2024-03-23T06:38:36;6.87;;;5.00;;
8895;SDS011;4484;48.928;10.066;2024-03-23T06:41:03;6.20;;;5.07;;
8895;SDS011;4484;48.928;10.066;2024-03-23T06:43:30;7.30;;;5.27;;
8895;SDS011;4484;48.928;10.066;2024-03-23T06:45:56;7.57;;;4.87;;
8895;SDS011;4484;48.928;10.066;2024-03-23T06:48:22;10.73;;;5.23;;
8895;SDS011;4484;48.928;10.066;2024-03-23T06:50:48;6.30;;;4.73;;
8895;SDS011;4484;48.928;10.066;2024-03-23T06:53:14;6.73;;;5.13;;
8895;SDS011;4484;48.928;10.066;2024-03-23T06:55:40;6.00;;;4.93;;
8895;SDS011;4484;48.928;10.066;2024-03-23T06:58:07;7.80;;;5.60;;
8895;SDS011;4484;48.928;10.066;2024-03-23T07:00:33;9.07;;;4.70;;
8895;SDS011;4484;48.928;10.066;2024-03-23T07:02:59;6.67;;;4.93;;
8895;SDS011;4484;48.928;10.066;2024-03-23T07:05:25;6.90;;;4.60;;
8895;SDS011;4484;48.928;10.066;2024-03-23T07:07:51;5.43;;;4.40;;
8895;SDS011;4484;48.928;10.066;2024-03-23T07:10:17;5.23;;;4.13;;
8895;SDS011;4484;48.928;10.066;2024-03-23T07:12:43;5.73;;;4.37;;
8895;SDS011;4484;48.928;10.066;2024-03-23T07:15:09;4.73;;;3.87;;
8895;SDS011;4484;48.928;10.066;2024-03-23T07:17:35;5.00;;;4.00;;
8895;SDS011;4484;48.928;10.066;2024-03-23T07:20:01;6.33;;;4.00;;
8895;SDS011;4484;48.928;10.066;2024-03-23T07:22:35;5.00;;;4.13;;
8895;SDS011;4484;48.928;10.066;2024-03-23T07:25:01;8.00;;;3.87;;
8895;SDS011;4484;48.928;10.066;2024-03-23T07:27:28;5.67;;;4.13;;
8895;SDS011;4484;48.928;10.066;2024-03-23T07:29:54;4.23;;;3.20;;
8895;SDS011;4484;48.928;10.066;2024-03-23T07:32:20;4.43;;;3.30;;
8895;SDS011;4484;48.928;10.066;2024-03-23T07:34:46;4.47;;;3.07;;
8895;SDS011;4484;48.928;10.066;2024-03-23T07:37:12;5.77;;;3.30;;
8895;SDS011;4484;48.928;10.066;2024-03-23T07:39:41;2.97;;;2.70;;
8895;SDS011;4484;48.928;10.066;2024-03-23T07:42:07;3.50;;;2.60;;
8895;SDS011;4484;48.928;10.066;2024-03-23T07:44:33;3.87;;;2.57;;
8895;SDS011;4484;48.928;10.066;2024-03-23T07:47:00;3.33;;;2.50;;
8895;SDS011;4484;48.928;10.066;2024-03-23T07:49:26;3.97;;;2.20;;
8895;SDS011;4484;48.928;10.066;2024-03-23T07:51:52;4.10;;;2.47;;
8895;SDS011;4484;48.928;10.066;2024-03-23T07:54:18;2.07;;;1.60;;
8895;SDS011;4484;48.928;10.066;2024-03-23T07:56:44;6.07;;;1.50;;
8895;SDS011;4484;48.928;10.066;2024-03-23T07:59:10;1.60;;;1.10;;
8895;SDS011;4484;48.928;10.066;2024-03-23T08:01:36;4.70;;;1.63;;
8895;SDS011;4484;48.928;10.066;2024-03-23T08:04:02;1.93;;;1.30;;
8895;SDS011;4484;48.928;10.066;2024-03-23T08:06:28;1.23;;;1.10;;
8895;SDS011;4484;48.928;10.066;2024-03-23T08:08:57;4.37;;;1.27;;
8895;SDS011;4484;48.928;10.066;2024-03-23T08:11:27;1.43;;;1.10;;
8895;SDS011;4484;48.928;10.066;2024-03-23T08:13:57;1.77;;;0.90;;
8895;SDS011;4484;48.928;10.066;2024-03-23T08:16:24;2.00;;;1.30;;
8895;SDS011;4484;48.928;10.066;2024-03-23T08:18:53;1.20;;;1.10;;
8895;SDS011;4484;48.928;10.066;2024-03-23T08:21:20;1.77;;;1.20;;
8895;SDS011;4484;48.928;10.066;2024-03-23T08:23:46;1.77;;;1.10;;
8895;SDS011;4484;48.928;10.066;2024-03-23T08:26:13;1.83;;;1.20;;
8895;SDS011;4484;48.928;10.066;2024-03-23T08:28:40;1.90;;;1.20;;
8895;SDS011;4484;48.928;10.066;2024-03-23T08:31:07;1.10;;;1.00;;
8895;SDS011;4484;48.928;10.066;2024-03-23T08:33:34;7.87;;;1.40;;
8895;SDS011;4484;48.928;10.066;2024-03-23T08:36:02;1.40;;;1.00;;
8895;SDS011;4484;48.928;10.066;2024-03-23T08:38:29;2.00;;;1.00;;
8895;SDS011;4484;48.928;10.066;2024-03-23T08:40:59;1.30;;;1.03;;
8895;SDS011;4484;48.928;10.066;2024-03-23T08:43:29;1.73;;;1.00;;
8895;SDS011;4484;48.928;10.066;2024-03-23T08:46:09;1.47;;;1.30;;
8895;SDS011;4484;48.928;10.066;2024-03-23T08:48:36;1.40;;;1.20;;
8895;SDS011;4484;48.928;10.066;2024-03-23T08:51:07;3.50;;;1.50;;
8895;SDS011;4484;48.928;10.066;2024-03-23T08:53:34;1.30;;;1.13;;
8895;SDS011;4484;48.928;10.066;2024-03-23T08:56:00;2.53;;;1.40;;
8895;SDS011;4484;48.928;10.066;2024-03-23T08:58:28;1.10;;;1.00;;
8895;SDS011;4484;48.928;10.066;2024-03-23T09:00:55;1.33;;;1.10;;
8895;SDS011;4484;48.928;10.066;2024-03-23T09:03:25;1.27;;;1.13;;
8895;SDS011;4484;48.928;10.066;2024-03-23T09:05:51;1.20;;;1.10;;
8895;SDS011;4484;48.928;10.066;2024-03-23T09:08:18;4.27;;;2.53;;
8895;SDS011;4484;48.928;10.066;2024-03-23T09:10:44;2.53;;;1.20;;
8895;SDS011;4484;48.928;10.066;2024-03-23T09:13:10;1.70;;;0.97;;
8895;SDS011;4484;48.928;10.066;2024-03-23T09:15:37;2.20;;;0.77;;
8895;SDS011;4484;48.928;10.066;2024-03-23T09:18:10;1.87;;;1.37;;
8895;SDS011;4484;48.928;10.066;2024-03-23T09:20:36;2.30;;;0.70;;
8895;SDS011;4484;48.928;10.066;2024-03-23T09:23:02;1.33;;;0.60;;
8895;SDS011;4484;48.928;10.066;2024-03-23T09:25:28;3.03;;;0.73;;
8895;SDS011;4484;48.928;10.066;2024-03-23T09:27:54;1.70;;;0.80;;
8895;SDS011;4484;48.928;10.066;2024-03-23T09:30:20;0.90;;;0.83;;
8895;SDS011;4484;48.928;10.066;2024-03-23T09:32:46;3.33;;;1.53;;
8895;SDS011;4484;48.928;10.066;2024-03-23T09:35:12;2.87;;;1.20;;
8895;SDS011;4484;48.928;10.066;2024-03-23T09:37:38;0.80;;;0.80;;
8895;SDS011;4484;48.928;10.066;2024-03-23T09:40:10;1.83;;;1.00;;
8895;SDS011;4484;48.928;10.066;2024-03-23T09:42:37;1.37;;;1.00;;
8895;SDS011;4484;48.928;10.066;2024-03-23T09:45:06;1.00;;;0.90;;
8895;SDS011;4484;48.928;10.066;2024-03-23T09:47:42;2.70;;;0.90;;
8895;SDS011;4484;48.928;10.066;2024-03-23T09:50:08;3.03;;;1.23;;
8895;SDS011;4484;48.928;10.066;2024-03-23T09:52:34;2.43;;;1.13;;
8895;SDS011;4484;48.928;10.066;2024-03-23T09:55:00;5.77;;;1.47;;
8895;SDS011;4484;48.928;10.066;2024-03-23T09:57:26;1.83;;;0.93;;
8895;SDS011;4484;48.928;10.066;2024-03-23T09:59:52;7.53;;;1.30;;
8895;SDS011;4484;48.928;10.066;2024-03-23T10:02:20;1.50;;;0.93;;
8895;SDS011;4484;48.928;10.066;2024-03-23T10:04:46;1.20;;;0.97;;
8895;SDS011;4484;48.928;10.066;2024-03-23T10:07:13;2.00;;;1.30;;
8895;SDS011;4484;48.928;10.066;2024-03-23T10:09:40;2.33;;;1.10;;
8895;SDS011;4484;48.928;10.066;2024-03-23T10:12:13;2.00;;;1.30;;
8895;SDS011;4484;48.928;10.066;2024-03-23T10:14:40;4.63;;;1.17;;
8895;SDS011;4484;48.928;10.066;2024-03-23T10:17:14;2.00;;;1.23;;
8895;SDS011;4484;48.928;10.066;2024-03-23T10:19:43;2.10;;;1.23;;
8895;SDS011;4484;48.928;10.066;2024-03-23T10:22:22;2.77;;;1.50;;
8895;SDS011;4484;48.928;10.066;2024-03-23T10:24:49;4.73;;;1.83;;
8895;SDS011;4484;48.928;10.066;2024-03-23T10:27:20;2.97;;;1.40;;
8895;SDS011;4484;48.928;10.066;2024-03-23T10:29:47;3.30;;;1.77;;
8895;SDS011;4484;48.928;10.066;2024-03-23T10:32:14;3.43;;;1.60;;
8895;SDS011;4484;48.928;10.066;2024-03-23T10:34:41;5.07;;;2.07;;
8895;SDS011;4484;48.928;10.066;2024-03-23T10:37:07;5.57;;;2.00;;
8895;SDS011;4484;48.928;10.066;2024-03-23T10:39:41;4.07;;;2.03;;
8895;SDS011;4484;48.928;10.066;2024-03-23T10:42:08;5.47;;;2.17;;
8895;SDS011;4484;48.928;10.066;2024-03-23T10:44:37;7.70;;;2.00;;
8895;SDS011;4484;48.928;10.066;2024-03-23T10:47:04;5.37;;;2.07;;
8895;SDS011;4484;48.928;10.066;2024-03-23T10:49:31;3.27;;;2.00;;
8895;SDS011;4484;48.928;10.066;2024-03-23T10:52:04;3.30;;;1.70;;
8895;SDS011;4484;48.928;10.066;2024-03-23T10:54:31;3.50;;;2.10;;
8895;SDS011;4484;48.928;10.066;2024-03-23T10:57:11;6.30;;;1.83;;
8895;SDS011;4484;48.928;10.066;2024-03-23T10:59:41;2.97;;;1.70;;
8895;SDS011;4484;48.928;10.066;2024-03-23T11:02:08;5.30;;;1.90;;
8895;SDS011;4484;48.928;10.066;2024-03-23T11:04:47;7.63;;;1.93;;
8895;SDS011;4484;48.928;10.066;2024-03-23T11:09:51;8.37;;;1.87;;
8895;SDS011;4484;48.928;10.066;2024-03-23T11:14:51;6.37;;;2.03;;
8895;SDS011;4484;48.928;10.066;2024-03-23T11:17:19;5.00;;;1.83;;
8895;SDS011;4484;48.928;10.066;2024-03-23T11:25:04;3.03;;;1.63;;
8895;SDS011;4484;48.928;10.066;2024-03-23T11:27:38;5.30;;;1.60;;
8895;SDS011;4484;48.928;10.066;2024-03-23T11:30:11;4.93;;;1.70;;
8895;SDS011;4484;48.928;10.066;2024-03-23T11:32:47;4.80;;;1.77;;
8895;SDS011;4484;48.928;10.066;2024-03-23T11:35:30;7.40;;;2.17;;
8895;SDS011;4484;48.928;10.066;2024-03-23T11:40:33;5.40;;;2.60;;
8895;SDS011;4484;48.928;10.066;2024-03-23T11:43:03;11.83;;;2.23;;
8895;SDS011;4484;48.928;10.066;2024-03-23T11:45:37;6.33;;;1.97;;
8895;SDS011;4484;48.928;10.066;2024-03-23T11:50:39;11.20;;;2.00;;
8895;SDS011;4484;48.928;10.066;2024-03-23T11:53:13;8.17;;;2.17;;
8895;SDS011;4484;48.928;10.066;2024-03-23T11:55:50;6.87;;;2.33;;
8895;SDS011;4484;48.928;10.066;2024-03-23T11:58:17;7.10;;;2.20;;
8895;SDS011;4484;48.928;10.066;2024-03-23T12:00:57;2.43;;;1.80;;
8895;SDS011;4484;48.928;10.066;2024-03-23T12:03:23;4.93;;;1.90;;
8895;SDS011;4484;48.928;10.066;2024-03-23T12:06:00;4.50;;;2.70;;
8895;SDS011;4484;48.928;10.066;2024-03-23T12:08:34;4.00;;;1.90;;
8895;SDS011;4484;48.928;10.066;2024-03-23T12:11:16;4.60;;;2.10;;
8895;SDS011;4484;48.928;10.066;2024-03-23T12:13:45;5.83;;;2.50;;
8895;SDS011;4484;48.928;10.066;2024-03-23T12:16:13;4.83;;;2.70;;
8895;SDS011;4484;48.928;10.066;2024-03-23T12:18:42;3.33;;;1.90;;
8895;SDS011;4484;48.928;10.066;2024-03-23T12:21:09;6.77;;;2.73;;
8895;SDS011;4484;48.928;10.066;2024-03-23T12:23:35;8.80;;;3.77;;
8895;SDS011;4484;48.928;10.066;2024-03-23T12:26:04;9.73;;;3.50;;
8895;SDS011;4484;48.928;10.066;2024-03-23T12:28:30;8.87;;;3.93;;
8895;SDS011;4484;48.928;10.066;2024-03-23T12:30:55;3.37;;;1.97;;
8895;SDS011;4484;48.928;10.066;2024-03-23T12:33:21;4.20;;;1.83;;
8895;SDS011;4484;48.928;10.066;2024-03-23T12:35:48;4.87;;;2.20;;
8895;SDS011;4484;48.928;10.066;2024-03-23T12:38:14;4.93;;;2.00;;
8895;SDS011;4484;48.928;10.066;2024-03-23T12:40:40;4.77;;;2.27;;
8895;SDS011;4484;48.928;10.066;2024-03-23T12:43:06;10.10;;;2.30;;
8895;SDS011;4484;48.928;10.066;2024-03-23T12:45:33;5.57;;;2.10;;
8895;SDS011;4484;48.928;10.066;2024-03-23T12:47:59;6.07;;;2.00;;
8895;SDS011;4484;48.928;10.066;2024-03-23T12:50:25;4.87;;;2.20;;
8895;SDS011;4484;48.928;10.066;2024-03-23T12:52:51;4.37;;;2.03;;
8895;SDS011;4484;48.928;10.066;2024-03-23T12:55:16;7.77;;;2.27;;
8895;SDS011;4484;48.928;10.066;2024-03-23T12:57:43;6.37;;;2.13;;
8895;SDS011;4484;48.928;10.066;2024-03-23T13:00:09;5.73;;;2.10;;
8895;SDS011;4484;48.928;10.066;2024-03-23T13:02:37;4.40;;;1.70;;
8895;SDS011;4484;48.928;10.066;2024-03-23T13:05:04;7.97;;;2.40;;
8895;SDS011;4484;48.928;10.066;2024-03-23T13:07:30;6.50;;;1.50;;
8895;SDS011;4484;48.928;10.066;2024-03-23T13:09:56;4.80;;;1.87;;
8895;SDS011;4484;48.928;10.066;2024-03-23T13:12:23;11.80;;;2.40;;
8895;SDS011;4484;48.928;10.066;2024-03-23T13:14:49;6.73;;;2.03;;
8895;SDS011;4484;48.928;10.066;2024-03-23T13:17:15;7.80;;;4.47;;
8895;SDS011;4484;48.928;10.066;2024-03-23T13:19:40;9.33;;;4.17;;
8895;SDS011;4484;48.928;10.066;2024-03-23T13:22:07;7.00;;;3.67;;
8895;SDS011;4484;48.928;10.066;2024-03-23T13:24:33;3.97;;;1.83;;
8895;SDS011;4484;48.928;10.066;2024-03-23T13:26:59;4.13;;;1.87;;
8895;SDS011;4484;48.928;10.066;2024-03-23T13:29:25;6.77;;;1.90;;
8895;SDS011;4484;48.928;10.066;2024-03-23T13:31:51;3.33;;;1.83;;
8895;SDS011;4484;48.928;10.066;2024-03-23T13:34:18;4.17;;;1.57;;
8895;SDS011;4484;48.928;10.066;2024-03-23T13:36:44;6.87;;;2.10;;
8895;SDS011;4484;48.928;10.066;2024-03-23T13:39:11;7.43;;;2.47;;
8895;SDS011;4484;48.928;10.066;2024-03-23T13:41:38;7.53;;;2.00;;
8895;SDS011;4484;48.928;10.066;2024-03-23T13:44:05;7.00;;;2.40;;
8895;SDS011;4484;48.928;10.066;2024-03-23T13:46:32;4.43;;;1.73;;
8895;SDS011;4484;48.928;10.066;2024-03-23T13:48:58;4.57;;;2.17;;
8895;SDS011;4484;48.928;10.066;2024-03-23T13:51:25;4.23;;;1.90;;
8895;SDS011;4484;48.928;10.066;2024-03-23T13:53:54;4.93;;;1.90;;
8895;SDS011;4484;48.928;10.066;2024-03-23T13:56:24;5.73;;;1.70;;
8895;SDS011;4484;48.928;10.066;2024-03-23T13:58:50;6.00;;;1.70;;
8895;SDS011;4484;48.928;10.066;2024-03-23T14:01:16;5.70;;;1.73;;
8895;SDS011;4484;48.928;10.066;2024-03-23T14:03:43;6.90;;;1.80;;
8895;SDS011;4484;48.928;10.066;2024-03-23T14:06:09;5.77;;;1.83;;
8895;SDS011;4484;48.928;10.066;2024-03-23T14:08:36;6.80;;;1.90;;
8895;SDS011;4484;48.928;10.066;2024-03-23T14:11:07;3.53;;;1.70;;
8895;SDS011;4484;48.928;10.066;2024-03-23T14:13:34;6.23;;;2.13;;
8895;SDS011;4484;48.928;10.066;2024-03-23T14:16:01;6.20;;;2.00;;
8895;SDS011;4484;48.928;10.066;2024-03-23T14:18:27;3.90;;;1.57;;
8895;SDS011;4484;48.928;10.066;2024-03-23T14:20:56;5.73;;;1.47;;
8895;SDS011;4484;48.928;10.066;2024-03-23T14:23:25;4.33;;;1.57;;
8895;SDS011;4484;48.928;10.066;2024-03-23T14:25:54;5.37;;;1.70;;
8895;SDS011;4484;48.928;10.066;2024-03-23T14:28:21;3.57;;;1.63;;
8895;SDS011;4484;48.928;10.066;2024-03-23T14:30:51;6.83;;;1.43;;
8895;SDS011;4484;48.928;10.066;2024-03-23T14:33:20;6.63;;;1.40;;
8895;SDS011;4484;48.928;10.066;2024-03-23T14:35:52;8.70;;;1.60;;
8895;SDS011;4484;48.928;10.066;2024-03-23T14:38:19;3.60;;;1.20;;
8895;SDS011;4484;48.928;10.066;2024-03-23T14:40:45;4.43;;;1.40;;
8895;SDS011;4484;48.928;10.066;2024-03-23T14:43:12;5.13;;;1.67;;
8895;SDS011;4484;48.928;10.066;2024-03-23T14:48:30;5.50;;;1.37;;
8895;SDS011;4484;48.928;10.066;2024-03-23T14:50:57;3.63;;;1.17;;
8895;SDS011;4484;48.928;10.066;2024-03-23T14:53:23;2.70;;;1.07;;
8895;SDS011;4484;48.928;10.066;2024-03-23T14:55:48;2.37;;;0.80;;
8895;SDS011;4484;48.928;10.066;2024-03-23T14:58:14;1.00;;;0.60;;
8895;SDS011;4484;48.928;10.066;2024-03-23T15:00:40;2.97;;;1.00;;
8895;SDS011;4484;48.928;10.066;2024-03-23T15:03:06;2.33;;;0.90;;
8895;SDS011;4484;48.928;10.066;2024-03-23T15:05:32;3.33;;;1.20;;
8895;SDS011;4484;48.928;10.066;2024-03-23T15:07:58;3.87;;;1.00;;
8895;SDS011;4484;48.928;10.066;2024-03-23T15:10:24;4.03;;;1.10;;
8895;SDS011;4484;48.928;10.066;2024-03-23T15:12:50;3.23;;;1.20;;
8895;SDS011;4484;48.928;10.066;2024-03-23T15:15:16;4.10;;;1.67;;
8895;SDS011;4484;48.928;10.066;2024-03-23T15:17:42;4.83;;;1.10;;
8895;SDS011;4484;48.928;10.066;2024-03-23T15:20:10;4.17;;;0.80;;
8895;SDS011;4484;48.928;10.066;2024-03-23T15:22:37;2.60;;;1.10;;
8895;SDS011;4484;48.928;10.066;2024-03-23T15:25:03;3.47;;;0.90;;
8895;SDS011;4484;48.928;10.066;2024-03-23T15:27:29;2.40;;;1.33;;
8895;SDS011;4484;48.928;10.066;2024-03-23T15:29:58;1.97;;;0.80;;
8895;SDS011;4484;48.928;10.066;2024-03-23T15:32:23;1.20;;;0.70;;
8895;SDS011;4484;48.928;10.066;2024-03-23T15:34:49;3.33;;;0.90;;
8895;SDS011;4484;48.928;10.066;2024-03-23T15:37:15;1.50;;;0.90;;
8895;SDS011;4484;48.928;10.066;2024-03-23T15:39:41;2.03;;;0.70;;
8895;SDS011;4484;48.928;10.066;2024-03-23T15:42:07;2.07;;;0.90;;
8895;SDS011;4484;48.928;10.066;2024-03-23T15:44:33;1.90;;;0.77;;
8895;SDS011;4484;48.928;10.066;2024-03-23T15:46:59;2.50;;;0.80;;
8895;SDS011;4484;48.928;10.066;2024-03-23T15:49:25;3.67;;;1.83;;
8895;SDS011;4484;48.928;10.066;2024-03-23T15:51:51;2.50;;;1.47;;
8895;SDS011;4484;48.928;10.066;2024-03-23T15:54:18;2.13;;;1.30;;
8895;SDS011;4484;48.928;10.066;2024-03-23T15:56:45;5.57;;;1.60;;
8895;SDS011;4484;48.928;10.066;2024-03-23T15:59:11;2.63;;;1.57;;
8895;SDS011;4484;48.928;10.066;2024-03-23T16:01:37;3.53;;;1.37;;
8895;SDS011;4484;48.928;10.066;2024-03-23T16:04:04;3.03;;;1.30;;
8895;SDS011;4484;48.928;10.066;2024-03-23T16:06:30;4.57;;;1.30;;
8895;SDS011;4484;48.928;10.066;2024-03-23T16:08:56;4.03;;;1.37;;
8895;SDS011;4484;48.928;10.066;2024-03-23T16:11:22;4.23;;;1.50;;